Time;durP1;ratioP1;P1;durP2;ratioP2;P2;SDS_P1;SDS_P2;PMS_P1;PMS_P2;Temp;Humidity;BMP_temperature;BMP_pressure;BME280_temperature;BME280_humidity;BME280_pressure;Samples;Min_cycle;Max_cycle;Signal;HPM_P1;HPM_P2
2023/01/03 00:00:31;;;;;;;11.52;7.47;;;;;;;5.43;100.00;99636.66;5049815;28;20144;-68
2023/01/03 00:03:31;;;;;;;17.38;7.28;;;;;;;5.39;100.00;99641.09;5049774;28;20067;-67
2023/01/03 00:06:19;;;;;;;16.75;6.72;;;;;;;5.37;100.00;99649.84;5041535;28;20114;-67
2023/01/03 00:09:08;;;;;;;29.67;7.65;;;;;;;5.37;100.00;99639.47;5049095;28;20064;-67
2023/01/03 00:14:58;;;;;;;11.77;6.93;;;;;;;5.30;100.00;99657.00;5044066;28;20053;-68
2023/01/03 00:17:45;;;;;;;16.75;7.40;;;;;;;5.32;100.00;99662.16;5050369;28;20133;-68
2023/01/03 00:20:32;;;;;;;14.10;6.80;;;;;;;5.37;100.00;99668.06;5049482;28;20060;-68
2023/01/03 00:23:17;;;;;;;39.58;8.48;;;;;;;5.23;100.00;99664.13;5050892;28;20128;-67
2023/01/03 00:26:09;;;;;;;12.18;6.50;;;;;;;5.12;100.00;99668.81;5023659;28;20048;-68
2023/01/03 00:28:55;;;;;;;14.45;7.25;;;;;;;5.10;100.00;99665.41;5050446;28;20076;-68
2023/01/03 00:31:41;;;;;;;40.22;7.70;;;;;;;4.83;100.00;99671.41;5049074;28;20041;-67
2023/01/03 00:34:26;;;;;;;28.75;7.13;;;;;;;4.67;100.00;99673.63;5035629;28;20047;-67
2023/01/03 00:37:12;;;;;;;10.25;5.80;;;;;;;4.79;100.00;99665.47;5038463;28;20106;-66
2023/01/03 00:39:56;;;;;;;14.93;6.30;;;;;;;4.95;100.00;99664.13;5049835;28;20617;-67
2023/01/03 00:45:44;;;;;;;8.50;5.05;;;;;;;5.21;100.00;99672.84;5048999;28;20063;-68
2023/01/03 00:48:31;;;;;;;13.35;5.97;;;;;;;5.30;100.00;99670.81;5039806;28;20068;-68
2023/01/03 00:51:25;;;;;;;12.32;5.78;;;;;;;5.19;100.00;99675.50;5034889;28;20040;-68
2023/01/03 00:54:11;;;;;;;18.20;6.07;;;;;;;5.18;100.00;99681.63;5075315;28;20041;-68
2023/01/03 00:56:56;;;;;;;17.73;6.63;;;;;;;5.19;100.00;99678.09;5047839;28;20037;-69
2023/01/03 00:59:41;;;;;;;17.52;6.07;;;;;;;5.17;100.00;99683.34;5035414;28;20041;-67
2023/01/03 01:02:26;;;;;;;31.80;8.02;;;;;;;5.15;100.00;99679.13;5047302;28;20041;-68
2023/01/03 01:05:10;;;;;;;37.13;7.75;;;;;;;5.08;100.00;99683.66;5047209;28;20049;-67
2023/01/03 01:07:55;;;;;;;9.98;5.30;;;;;;;5.04;100.00;99688.09;5047458;28;20061;-67
2023/01/03 01:11:00;;;;;;;15.70;6.55;;;;;;;5.10;100.00;99699.19;5048220;28;20063;-67
2023/01/03 01:13:46;;;;;;;9.25;5.63;;;;;;;5.16;100.00;99697.25;5049839;28;20045;-68
2023/01/03 01:16:31;;;;;;;9.43;5.53;;;;;;;5.26;100.00;99702.16;5038324;28;20139;-66
2023/01/03 01:19:18;;;;;;;11.30;6.38;;;;;;;5.39;100.00;99700.88;5049379;28;20041;-68
2023/01/03 01:22:03;;;;;;;15.68;7.05;;;;;;;5.43;100.00;99704.22;5053328;28;20045;-68
2023/01/03 01:24:48;;;;;;;8.73;5.88;;;;;;;5.49;100.00;99705.75;5052858;28;20045;-69
2023/01/03 01:27:33;;;;;;;8.00;5.70;;;;;;;5.58;100.00;99704.63;5038907;28;20140;-67
2023/01/03 01:30:17;;;;;;;10.00;5.97;;;;;;;5.61;100.00;99710.59;5053573;28;20059;-68
2023/01/03 01:33:03;;;;;;;43.13;8.90;;;;;;;5.54;100.00;99711.66;5053878;28;20484;-68
2023/01/03 01:35:47;;;;;;;19.30;6.68;;;;;;;5.43;100.00;99715.44;5044810;28;20036;-67
2023/01/03 01:38:32;;;;;;;12.63;7.43;;;;;;;5.40;100.00;99715.56;5041308;28;20048;-67
2023/01/03 01:44:36;;;;;;;16.95;9.10;;;;;;;5.34;100.00;99718.34;5053392;28;20045;-68
2023/01/03 01:44:51;;;;;;;11.65;6.53;;;;;;;5.32;100.00;99734.91;5051966;28;20049;-66
2023/01/03 01:47:51;;;;;;;23.20;7.88;;;;;;;5.22;100.00;99732.59;5052839;28;20045;-67
2023/01/03 01:50:54;;;;;;;26.88;8.30;;;;;;;5.14;100.00;99719.81;5052049;28;20072;-67
2023/01/03 01:53:40;;;;;;;11.57;6.20;;;;;;;5.21;100.00;99722.22;5053227;28;20064;-68
2023/01/03 01:56:30;;;;;;;46.65;10.07;;;;;;;5.14;100.00;99726.78;5052042;28;20057;-68
2023/01/03 01:59:15;;;;;;;43.53;8.65;;;;;;;4.89;100.00;99730.97;5052604;28;20071;-67
2023/01/03 02:02:00;;;;;;;42.00;8.95;;;;;;;4.78;100.00;99730.44;5053281;28;20132;-67
2023/01/03 02:04:47;;;;;;;39.05;7.97;;;;;;;4.69;100.00;99731.53;5053230;28;20047;-67
2023/01/03 02:07:33;;;;;;;22.33;6.88;;;;;;;4.86;100.00;99740.59;5039705;28;20049;-68
2023/01/03 02:10:31;;;;;;;10.25;6.35;;;;;;;4.86;100.00;99731.06;5052772;28;20124;-68
2023/01/03 02:13:32;;;;;;;11.15;6.05;;;;;;;5.13;100.00;99738.06;5042140;28;20128;-66
2023/01/03 02:16:26;;;;;;;16.77;7.80;;;;;;;5.16;100.00;99735.34;5039242;28;20044;-67
2023/01/03 02:19:48;;;;;;;15.68;6.50;;;;;;;5.22;100.00;99743.00;5051972;28;20053;-66
2023/01/03 02:22:33;;;;;;;21.65;8.15;;;;;;;5.27;100.00;99748.03;5052851;28;20476;-66
2023/01/03 02:25:29;;;;;;;19.05;7.85;;;;;;;5.23;100.00;99744.69;5052242;28;20156;-66
2023/01/03 02:28:42;;;;;;;12.20;7.13;;;;;;;5.03;100.00;99734.88;5051569;28;20047;-68
2023/01/03 02:31:46;;;;;;;20.90;8.85;;;;;;;4.97;100.00;99735.06;5052685;28;20060;-67
2023/01/03 02:35:00;;;;;;;11.45;6.95;;;;;;;5.08;100.00;99738.19;5044295;28;20136;-68
2023/01/03 02:37:48;;;;;;;18.42;6.63;;;;;;;4.99;100.00;99741.94;5015550;28;20045;-67
2023/01/03 02:40:44;;;;;;;11.70;7.32;;;;;;;5.13;100.00;99738.06;4999415;28;20100;-68
2023/01/03 02:43:37;;;;;;;17.00;7.68;;;;;;;5.29;100.00;99741.03;4985151;28;20046;-66
2023/01/03 02:46:46;;;;;;;16.52;8.80;;;;;;;5.33;100.00;99742.66;4996116;28;20046;-67
2023/01/03 02:49:35;;;;;;;21.73;9.25;;;;;;;5.25;100.00;99745.50;5009759;28;20045;-67
2023/01/03 02:52:25;;;;;;;16.90;9.15;;;;;;;5.05;100.00;99749.53;5009819;28;20049;-66
2023/01/03 02:55:19;;;;;;;18.77;8.88;;;;;;;5.00;100.00;99760.94;5010095;28;20136;-66
2023/01/03 02:58:10;;;;;;;9.80;5.47;;;;;;;5.09;100.00;99762.44;4990357;28;20046;-66
2023/01/03 03:00:58;;;;;;;16.77;9.73;;;;;;;5.15;100.00;99781.28;5008965;28;20137;-67
2023/01/03 03:03:44;;;;;;;18.55;9.27;;;;;;;5.01;100.00;99773.06;4992528;28;20174;-67
2023/01/03 03:06:37;;;;;;;12.88;7.75;;;;;;;4.90;100.00;99774.22;5009960;28;20561;-67
2023/01/03 03:09:23;;;;;;;14.43;8.48;;;;;;;5.02;100.00;99773.03;5023566;28;20046;-67
2023/01/03 03:15:14;;;;;;;15.27;8.75;;;;;;;4.97;100.00;99779.22;5043192;28;20049;-67
2023/01/03 03:18:05;;;;;;;9.38;6.05;;;;;;;5.11;100.00;99791.81;5044010;28;20463;-67
2023/01/03 03:30:21;;;;;;;10.70;6.60;;;;;;;5.24;100.00;99789.72;5042779;28;20615;-67
2023/01/03 03:33:06;;;;;;;12.30;7.07;;;;;;;5.25;100.00;99783.59;5050281;28;20044;-67
2023/01/03 03:36:23;;;;;;;11.52;7.05;;;;;;;5.29;100.00;99775.66;5051482;28;20056;-67
2023/01/03 03:44:59;;;;;;;18.40;9.10;;;;;;;5.12;100.00;99783.13;5039586;28;20037;-68
2023/01/03 03:45:48;;;;;;;11.05;6.53;;;;;;;5.18;100.00;99793.34;5050936;28;20087;-67
2023/01/03 03:51:59;;;;;;;9.95;6.07;;;;;;;5.32;100.00;99789.47;5050784;28;20052;-67
2023/01/03 03:55:00;;;;;;;13.93;6.75;;;;;;;5.36;100.00;99786.72;5049773;28;20073;-67
2023/01/03 03:57:51;;;;;;;8.15;5.25;;;;;;;5.40;100.00;99777.94;5050396;28;20044;-67
2023/01/03 04:00:39;;;;;;;12.45;6.80;;;;;;;5.43;100.00;99780.44;5050965;28;20053;-69
2023/01/03 04:03:25;;;;;;;11.80;7.07;;;;;;;5.41;100.00;99778.78;5051159;28;20059;-67
2023/01/03 04:06:37;;;;;;;13.65;7.50;;;;;;;5.37;100.00;99785.81;5065534;28;20049;-68
2023/01/03 04:09:22;;;;;;;18.35;5.93;;;;;;;5.22;100.00;99786.31;5050706;28;20041;-67
2023/01/03 04:12:07;;;;;;;12.80;6.10;;;;;;;5.27;100.00;99784.44;5050874;28;20510;-67
2023/01/03 04:14:53;;;;;;;9.45;6.38;;;;;;;5.26;100.00;99790.50;5066167;28;20040;-67
2023/01/03 04:17:38;;;;;;;8.20;5.38;;;;;;;5.32;100.00;99794.69;5050543;28;20037;-68
2023/01/03 04:20:23;;;;;;;8.82;5.40;;;;;;;5.38;100.00;99789.28;5050215;28;20095;-67
2023/01/03 04:23:07;;;;;;;9.70;5.38;;;;;;;5.37;100.00;99796.22;5038330;28;20045;-67
2023/01/03 04:25:52;;;;;;;10.13;5.82;;;;;;;5.40;100.00;99798.72;5044204;28;20048;-67
2023/01/03 04:28:37;;;;;;;22.52;7.45;;;;;;;5.32;100.00;99803.31;5048310;28;20041;-68
2023/01/03 04:31:22;;;;;;;11.05;4.88;;;;;;;5.27;100.00;99805.22;5049157;28;20119;-67
2023/01/03 04:34:07;;;;;;;25.75;7.47;;;;;;;5.10;100.00;99797.91;5050559;28;20040;-67
2023/01/03 04:36:51;;;;;;;27.00;5.95;;;;;;;5.00;100.00;99805.09;5049147;28;20110;-67
2023/01/03 04:39:36;;;;;;;29.48;6.60;;;;;;;4.97;100.00;99813.84;5049878;28;20041;-67
2023/01/03 04:45:24;;;;;;;11.60;5.07;;;;;;;4.94;100.00;99819.13;5040643;28;20049;-67
2023/01/03 04:48:08;;;;;;;8.43;5.28;;;;;;;4.92;100.00;99826.09;5049931;28;20057;-67
2023/01/03 04:50:55;;;;;;;27.27;7.00;;;;;;;4.97;100.00;99836.38;5049731;28;20053;-66
2023/01/03 04:53:40;;;;;;;9.23;5.25;;;;;;;4.87;100.00;99834.03;5050158;28;20115;-67
2023/01/03 04:56:30;;;;;;;31.02;7.13;;;;;;;4.83;100.00;99832.41;5038447;28;20098;-67
2023/01/03 04:59:15;;;;;;;14.50;7.00;;;;;;;4.74;100.00;99823.13;5049081;28;20127;-67
2023/01/03 05:02:00;;;;;;;10.23;5.40;;;;;;;4.92;100.00;99832.16;5048768;28;20075;-67
2023/01/03 05:04:45;;;;;;;8.05;4.80;;;;;;;5.01;100.00;99835.41;5048968;28;20045;-67
2023/01/03 05:07:30;;;;;;;11.52;7.18;;;;;;;5.09;100.00;99837.78;5028879;28;20125;-67
2023/01/03 05:10:15;;;;;;;9.60;5.65;;;;;;;5.20;100.00;99834.84;5045935;28;20048;-67
2023/01/03 05:13:00;;;;;;;7.78;4.88;;;;;;;5.21;100.00;99841.75;5048228;28;20389;-67
2023/01/03 05:15:44;;;;;;;12.63;5.85;;;;;;;5.06;100.00;99846.47;5047522;28;20033;-67
2023/01/03 05:18:30;;;;;;;25.23;6.13;;;;;;;4.89;100.00;99840.03;5046580;28;20057;-63
2023/01/03 05:27:21;;;;;;;19.98;6.35;;;;;;;4.71;100.00;99840.53;5042769;28;20045;-68
2023/01/03 05:30:06;;;;;;;16.17;5.88;;;;;;;4.66;100.00;99838.06;5044504;28;20076;-68
2023/01/03 05:32:51;;;;;;;11.25;6.03;;;;;;;4.76;100.00;99844.72;5045162;28;20041;-67
2023/01/03 05:35:35;;;;;;;9.02;5.30;;;;;;;4.95;100.00;99841.59;5036208;28;20052;-68
2023/01/03 05:38:22;;;;;;;11.20;5.07;;;;;;;4.92;100.00;99846.88;5046061;28;20102;-69
2023/01/03 05:41:07;;;;;;;11.73;5.53;;;;;;;4.97;100.00;99841.56;5043360;28;20102;-69
2023/01/03 05:43:51;;;;;;;8.77;5.30;;;;;;;5.00;100.00;99841.47;5026881;28;20043;-68
2023/01/03 05:46:36;;;;;;;8.00;5.00;;;;;;;4.92;100.00;99850.34;5054509;28;20045;-66
2023/01/03 05:49:21;;;;;;;7.47;4.65;;;;;;;5.09;100.00;99851.63;5071907;28;20087;-66
2023/01/03 05:52:06;;;;;;;7.75;4.70;;;;;;;5.20;100.00;99853.03;5038978;28;20047;-67
2023/01/03 05:54:50;;;;;;;12.55;5.72;;;;;;;5.16;100.00;99855.72;5040662;28;20107;-66
2023/01/03 05:57:35;;;;;;;10.82;5.03;;;;;;;5.51;100.00;99850.41;5043470;28;20041;-64
2023/01/03 06:00:20;;;;;;;10.23;5.93;;;;;;;5.70;100.00;99849.81;5045099;28;20045;-66
2023/01/03 06:03:05;;;;;;;10.38;5.05;;;;;;;5.92;100.00;99856.97;5043000;28;20048;-66
2023/01/03 06:05:50;;;;;;;11.02;5.85;;;;;;;5.90;100.00;99858.75;5027709;28;20080;-65
2023/01/03 06:08:35;;;;;;;13.60;5.75;;;;;;;5.73;100.00;99865.31;5044990;28;20041;-67
2023/01/03 06:11:20;;;;;;;8.85;5.13;;;;;;;5.64;100.00;99858.69;5050228;28;20500;-66
2023/01/03 06:14:05;;;;;;;8.32;4.97;;;;;;;5.61;100.00;99870.91;5050744;28;20404;-66
2023/01/03 06:19:52;;;;;;;15.98;9.02;;;;;;;5.28;100.00;99869.28;5040168;28;20048;-66
2023/01/03 06:22:37;;;;;;;11.95;6.57;;;;;;;5.27;100.00;99875.38;5050462;28;20041;-67
2023/01/03 06:25:22;;;;;;;13.18;6.82;;;;;;;5.42;100.00;99877.50;5035598;28;20037;-65
2023/01/03 06:28:07;;;;;;;9.10;5.40;;;;;;;5.47;100.00;99887.78;5050977;28;20037;-67
2023/01/03 06:30:52;;;;;;;10.80;5.97;;;;;;;5.44;100.00;99903.47;5040874;28;20048;-66
2023/01/03 06:33:38;;;;;;;9.13;5.15;;;;;;;5.42;100.00;99903.50;5050123;28;20447;-66
2023/01/03 06:36:24;;;;;;;14.90;6.18;;;;;;;5.32;100.00;99911.63;5049366;28;20326;-66
2023/01/03 06:39:09;;;;;;;31.75;6.90;;;;;;;5.22;100.00;99919.69;5049554;28;20045;-67
2023/01/03 06:41:54;;;;;;;10.45;5.25;;;;;;;4.93;100.00;99922.16;5038547;28;20360;-66
2023/01/03 06:44:39;;;;;;;8.93;5.63;;;;;;;5.08;100.00;99916.59;5050231;28;20041;-65
2023/01/03 06:53:39;;;;;;;8.98;5.50;;;;;;;5.25;100.00;99924.78;5040865;28;20056;-66
2023/01/03 06:56:24;;;;;;;9.70;5.65;;;;;;;5.32;100.00;99932.41;5017339;28;20477;-67
2023/01/03 06:59:09;;;;;;;10.18;6.15;;;;;;;5.31;100.00;99934.16;5046240;28;20037;-67
2023/01/03 07:01:55;;;;;;;10.98;6.38;;;;;;;5.32;100.00;99935.00;5049053;28;20156;-66
2023/01/03 07:04:40;;;;;;;8.43;5.00;;;;;;;5.13;100.00;99935.50;5046455;28;20068;-66
2023/01/03 07:07:24;;;;;;;18.42;6.95;;;;;;;5.04;100.00;99939.22;5048919;28;20135;-66
2023/01/03 07:10:09;;;;;;;16.80;6.80;;;;;;;4.95;100.00;99948.09;5049787;28;20056;-65
2023/01/03 07:16:02;;;;;;;13.65;6.75;;;;;;;4.95;100.00;99948.09;5049399;28;20465;-68
2023/01/03 07:18:46;;;;;;;8.27;4.68;;;;;;;4.97;100.00;99943.72;5048293;28;20123;-67
2023/01/03 07:21:33;;;;;;;7.45;5.13;;;;;;;4.98;100.00;99958.41;5049987;28;20132;-67
2023/01/03 07:24:19;;;;;;;8.15;4.85;;;;;;;4.93;100.00;99952.47;5049161;28;20040;-66
2023/01/03 07:27:06;;;;;;;7.80;4.93;;;;;;;4.95;100.00;99955.88;5048107;28;20068;-67
2023/01/03 07:29:52;;;;;;;13.60;4.95;;;;;;;5.00;100.00;99961.81;5034187;28;20473;-66
2023/01/03 07:32:37;;;;;;;8.80;4.95;;;;;;;5.07;100.00;99970.31;5049863;28;20361;-67
2023/01/03 07:35:21;;;;;;;8.25;4.85;;;;;;;5.20;100.00;99970.81;5049339;28;20405;-66
2023/01/03 07:38:07;;;;;;;8.02;4.72;;;;;;;5.21;100.00;99988.09;5049460;28;20115;-66
2023/01/03 07:40:55;;;;;;;9.90;5.00;;;;;;;5.16;100.00;99980.44;5048256;28;20373;-67
2023/01/03 07:43:43;;;;;;;20.05;5.20;;;;;;;5.12;100.00;99990.97;5038791;28;20052;-66
2023/01/03 07:46:29;;;;;;;16.00;5.03;;;;;;;5.10;100.00;99995.34;5048802;28;20132;-68
2023/01/03 07:49:14;;;;;;;32.53;5.55;;;;;;;5.20;100.00;99996.81;5076284;28;20124;-67
2023/01/03 07:51:59;;;;;;;17.17;4.90;;;;;;;5.23;100.00;99994.13;5049107;28;20049;-67
2023/01/03 07:54:44;;;;;;;7.00;4.13;;;;;;;6.34;100.00;100005.75;5048971;28;20079;-68
2023/01/03 07:57:29;;;;;;;7.10;4.13;;;;;;;7.04;100.00;100000.91;5047639;28;20212;-66
2023/01/03 08:00:14;;;;;;;7.07;4.38;;;;;;;8.31;100.00;100009.38;5048921;28;20076;-65
2023/01/03 08:02:58;;;;;;;6.38;3.72;;;;;;;8.74;98.89;100010.31;5038100;28;20039;-66
2023/01/03 08:05:43;;;;;;;7.28;4.55;;;;;;;9.32;95.21;100004.44;5035355;28;20127;-66
2023/01/03 08:08:28;;;;;;;11.45;6.85;;;;;;;9.59;92.72;100011.97;5047141;28;20080;-67
2023/01/03 08:14:17;;;;;;;8.30;5.07;;;;;;;10.17;88.85;100006.75;5048604;28;20044;-66
2023/01/03 08:17:01;;;;;;;7.88;4.10;;;;;;;10.44;88.55;100012.47;5048673;28;20044;-66
2023/01/03 08:19:46;;;;;;;7.13;4.68;;;;;;;10.90;86.67;100011.13;5043501;28;20127;-66
2023/01/03 08:22:32;;;;;;;7.75;3.53;;;;;;;11.49;85.85;100020.41;5048290;28;20164;-67
2023/01/03 08:25:16;;;;;;;6.03;3.75;;;;;;;11.28;85.07;100017.97;5048266;28;20045;-66
2023/01/03 08:28:02;;;;;;;6.95;4.70;;;;;;;11.84;85.30;100014.22;5048899;28;20164;-67
2023/01/03 08:30:48;;;;;;;11.88;6.57;;;;;;;12.21;82.93;100019.25;5037441;28;20132;-67
2023/01/03 08:33:38;;;;;;;9.32;5.85;;;;;;;12.59;79.83;100023.28;5048076;28;20056;-67
2023/01/03 08:36:25;;;;;;;10.07;5.50;;;;;;;11.85;80.90;100033.47;5046589;28;20551;-67
2023/01/03 08:39:14;;;;;;;11.13;5.88;;;;;;;11.82;80.35;100034.44;5048277;28;20549;-67
2023/01/03 08:42:03;;;;;;;10.05;4.93;;;;;;;11.60;81.07;100032.97;5036849;28;20411;-67
2023/01/03 08:44:54;;;;;;;6.35;3.70;;;;;;;11.82;82.22;100034.44;5046529;28;20533;-67
2023/01/03 08:47:40;;;;;;;9.18;5.35;;;;;;;11.50;82.02;100030.00;5048270;28;20048;-67
2023/01/03 08:50:25;;;;;;;8.00;4.68;;;;;;;11.95;81.62;100025.00;5047430;28;20071;-67
2023/01/03 08:53:09;;;;;;;12.13;6.72;;;;;;;12.25;80.69;100018.16;5021679;28;20053;-67
2023/01/03 08:55:54;;;;;;;11.00;6.10;;;;;;;12.36;80.34;100025.44;5034784;28;20122;-67
2023/01/03 08:58:39;;;;;;;9.35;5.25;;;;;;;12.78;77.39;100038.00;5048049;28;20052;-67
2023/01/03 09:01:24;;;;;;;9.60;5.68;;;;;;;12.74;76.08;100039.97;5047958;28;20045;-67
2023/01/03 09:04:09;;;;;;;7.82;4.50;;;;;;;13.18;75.58;100040.97;5032558;28;20100;-67
2023/01/03 09:06:53;;;;;;;7.97;4.55;;;;;;;13.58;76.10;100036.03;5047659;28;20045;-67
2023/01/03 09:09:38;;;;;;;6.70;4.18;;;;;;;13.60;73.96;100039.41;5047896;28;20512;-67
2023/01/03 09:12:23;;;;;;;9.93;5.47;;;;;;;13.33;76.07;100040.13;5039575;28;20497;-68
2023/01/03 09:15:08;;;;;;;6.10;3.63;;;;;;;13.13;79.46;100045.63;5042120;28;20049;-68
2023/01/03 09:17:53;;;;;;;7.32;3.95;;;;;;;13.39;78.20;100035.34;5047604;28;20053;-67
2023/01/03 09:20:38;;;;;;;6.75;4.18;;;;;;;13.43;78.69;100036.84;5047430;28;20045;-68
2023/01/03 09:23:22;;;;;;;4.35;3.25;;;;;;;13.83;77.66;100045.91;5047874;28;20456;-68
2023/01/03 09:26:08;;;;;;;4.28;2.78;;;;;;;14.05;74.66;100039.31;5047034;28;20495;-67
2023/01/03 09:28:53;;;;;;;6.45;4.00;;;;;;;13.33;77.75;100048.88;5047409;28;20040;-67
2023/01/03 09:31:37;;;;;;;6.65;3.38;;;;;;;12.81;79.29;100043.94;5047458;28;20053;-67
2023/01/03 09:34:22;;;;;;;5.63;3.42;;;;;;;12.50;80.21;100050.13;5047727;28;20426;-67
2023/01/03 09:37:07;;;;;;;7.72;4.72;;;;;;;12.06;80.00;100036.69;5036298;28;20411;-67
2023/01/03 09:39:51;;;;;;;9.05;5.68;;;;;;;12.16;83.44;100031.78;5047571;28;20069;-67
2023/01/03 09:45:42;;;;;;;6.63;3.80;;;;;;;12.01;84.07;100036.94;5051737;28;20053;-67
2023/01/03 09:48:33;;;;;;;5.07;3.10;;;;;;;11.62;85.90;100035.53;5039145;28;20047;-68
2023/01/03 10:04:03;;;;;;;7.22;4.53;;;;;;;11.51;85.71;100030.81;5051176;28;20057;-68
2023/01/03 10:07:03;;;;;;;8.60;5.75;;;;;;;11.60;86.37;100030.34;5050079;28;20156;-68
2023/01/03 10:10:15;;;;;;;6.20;3.78;;;;;;;11.40;86.32;100034.00;5035691;28;20423;-68
2023/01/03 10:13:06;;;;;;;10.43;6.13;;;;;;;11.36;84.72;100038.56;5050661;28;20057;-68
2023/01/03 10:16:05;;;;;;;9.02;5.63;;;;;;;11.64;86.01;100031.88;5063835;28;20048;-68
2023/01/03 10:19:11;;;;;;;10.15;5.50;;;;;;;12.29;83.04;100030.19;5050531;28;20136;-68
2023/01/03 10:22:20;;;;;;;9.65;5.97;;;;;;;12.08;79.69;100024.34;5050733;28;20053;-68
2023/01/03 10:25:10;;;;;;;9.07;5.50;;;;;;;11.57;84.83;100025.28;5044221;28;20476;-70
2023/01/03 10:28:23;;;;;;;8.27;4.57;;;;;;;11.29;86.27;100022.28;5035385;28;20166;-68
2023/01/03 10:31:24;;;;;;;10.07;6.03;;;;;;;10.76;87.44;100022.31;5070216;28;20448;-68
2023/01/03 10:34:10;;;;;;;10.02;5.72;;;;;;;10.69;90.30;100016.53;5044320;28;20075;-69
2023/01/03 10:36:54;;;;;;;12.35;8.40;;;;;;;10.66;93.23;100005.31;5049175;28;20119;-66
2023/01/03 10:39:39;;;;;;;23.02;13.13;;;;;;;10.69;92.23;100008.66;5050468;28;20087;-67
2023/01/03 10:42:29;;;;;;;15.40;9.40;;;;;;;10.50;92.75;100010.47;5050477;28;20029;-67
2023/01/03 10:45:17;;;;;;;10.52;6.10;;;;;;;10.55;91.33;100017.22;5039103;28;20477;-69
2023/01/03 10:48:02;;;;;;;9.38;5.90;;;;;;;10.54;92.85;100012.03;5048904;28;20419;-65
2023/01/03 10:50:49;;;;;;;9.90;6.30;;;;;;;10.47;93.57;100014.09;5049820;28;20558;-67
2023/01/03 10:53:40;;;;;;;8.52;5.60;;;;;;;10.23;92.70;100017.78;5034851;28;20718;-67
2023/01/03 10:56:29;;;;;;;8.55;5.75;;;;;;;10.16;94.23;100011.16;5038094;28;20106;-66
2023/01/03 10:59:33;;;;;;;10.07;5.18;;;;;;;10.17;94.46;100014.59;5049737;28;20045;-66
2023/01/03 11:02:17;;;;;;;8.27;5.38;;;;;;;9.90;94.71;100014.97;5048787;28;20064;-66
2023/01/03 11:05:11;;;;;;;7.75;5.30;;;;;;;10.06;95.60;100021.19;5049912;28;20491;-67
2023/01/03 11:07:58;;;;;;;8.98;5.20;;;;;;;10.11;95.63;100018.38;5039804;28;20056;-66
2023/01/03 11:10:52;;;;;;;8.82;5.28;;;;;;;10.01;93.91;100019.69;5048217;28;20045;-66
2023/01/03 11:13:40;;;;;;;8.02;4.93;;;;;;;10.05;93.09;100021.28;5049840;28;20611;-66
2023/01/03 11:16:30;;;;;;;14.63;8.65;;;;;;;10.08;93.65;100022.00;5036685;28;20040;-66
2023/01/03 11:19:17;;;;;;;8.30;5.22;;;;;;;10.23;93.25;100023.00;5048254;28;20385;-66
2023/01/03 11:22:05;;;;;;;9.27;5.47;;;;;;;10.33;92.75;100019.97;5048156;28;20450;-66
2023/01/03 11:24:59;;;;;;;9.52;6.15;;;;;;;10.20;92.77;100017.09;5049368;28;20052;-65
2023/01/03 11:27:53;;;;;;;13.90;7.50;;;;;;;10.01;94.26;100015.31;5038687;28;20044;-66
2023/01/03 11:31:01;;;;;;;10.68;6.40;;;;;;;9.98;93.89;100008.47;5048421;28;20051;-67
2023/01/03 11:34:07;;;;;;;9.30;5.90;;;;;;;10.21;93.29;100014.41;5037725;28;20029;-68
2023/01/03 11:36:58;;;;;;;9.63;5.40;;;;;;;9.96;93.37;100009.44;5033957;28;20068;-66
2023/01/03 11:40:00;;;;;;;8.40;5.22;;;;;;;9.86;94.22;100016.88;5049320;28;20040;-67
2023/01/03 11:43:31;;;;;;;8.80;4.97;;;;;;;9.84;94.62;100003.03;5049839;28;20060;-64
2023/01/03 11:46:40;;;;;;;7.60;5.00;;;;;;;9.81;92.87;99998.75;5027213;28;20497;-67
2023/01/03 11:49:50;;;;;;;8.32;5.32;;;;;;;9.88;93.77;99993.25;5025879;28;20409;-68
2023/01/03 11:53:02;;;;;;;10.55;7.22;;;;;;;9.99;93.25;99990.97;5026277;28;20057;-68
2023/01/03 11:56:25;;;;;;;10.52;6.05;;;;;;;9.88;92.91;99990.63;5022280;28;20133;-67
2023/01/03 11:59:47;;;;;;;11.00;6.95;;;;;;;9.80;93.74;99991.84;5005591;28;20159;-67
2023/01/03 12:03:08;;;;;;;10.23;6.43;;;;;;;9.84;93.56;99995.19;4992212;28;20041;-66
2023/01/03 12:06:18;;;;;;;9.15;5.85;;;;;;;9.73;93.61;99993.88;4988377;28;20054;-65
2023/01/03 12:09:13;;;;;;;9.88;6.13;;;;;;;9.56;93.89;99996.41;4986465;28;20050;-65
2023/01/03 12:12:11;;;;;;;12.90;8.30;;;;;;;9.62;94.63;99988.28;4986463;28;20236;-66
2023/01/03 12:15:25;;;;;;;15.43;8.90;;;;;;;9.74;94.37;99982.50;4982199;28;20058;-67
2023/01/03 12:18:56;;;;;;;8.68;5.22;;;;;;;9.72;92.40;99988.72;4901586;29;20056;-68
2023/01/03 12:21:49;;;;;;;5.47;3.58;;;;;;;9.59;92.38;99980.59;4928904;29;20067;-68
2023/01/03 12:24:58;;;;;;;7.18;4.75;;;;;;;9.23;95.95;99980.38;4926588;29;20094;-66
2023/01/03 12:28:09;;;;;;;7.60;5.63;;;;;;;9.50;95.54;99973.97;4928764;29;20056;-66
2023/01/03 12:31:08;;;;;;;10.43;5.90;;;;;;;9.32;95.01;99971.28;4909816;29;20060;-65
2023/01/03 12:34:01;;;;;;;10.57;6.95;;;;;;;9.61;96.51;99973.53;4878082;29;20057;-67
2023/01/03 12:36:48;;;;;;;7.07;4.38;;;;;;;9.61;95.48;99974.34;4881689;29;20055;-66
2023/01/03 12:39:58;;;;;;;8.95;5.30;;;;;;;9.43;95.60;99989.13;4892305;29;20106;-65
2023/01/03 12:42:55;;;;;;;6.55;4.55;;;;;;;9.33;96.82;99978.22;4928936;29;20063;-68
2023/01/03 12:45:41;;;;;;;7.65;5.05;;;;;;;9.41;96.07;99977.00;4921680;29;20051;-67
2023/01/03 12:48:51;;;;;;;10.80;6.25;;;;;;;9.23;96.72;99975.16;4927386;29;20067;-68
2023/01/03 12:51:36;;;;;;;8.52;5.65;;;;;;;9.12;97.57;99974.78;4928117;29;20134;-67
2023/01/03 12:54:47;;;;;;;9.48;4.82;;;;;;;8.94;96.63;99974.66;4931430;28;20051;-67
2023/01/03 12:57:49;;;;;;;9.45;4.90;;;;;;;9.05;97.50;99975.94;4947394;28;20554;-67
2023/01/03 13:00:40;;;;;;;7.10;4.40;;;;;;;8.82;98.42;99983.00;4944989;28;20590;-67
2023/01/03 13:03:37;;;;;;;10.25;6.53;;;;;;;8.97;99.04;99982.38;4947680;28;20051;-67
2023/01/03 13:06:34;;;;;;;8.93;5.30;;;;;;;8.93;99.66;99979.91;4934321;29;20048;-66
2023/01/03 13:09:44;;;;;;;14.55;8.57;;;;;;;9.06;100.00;99972.41;5021057;28;20041;-66
2023/01/03 13:12:34;;;;;;;7.38;4.82;;;;;;;9.00;100.00;99970.91;5043247;28;20198;-67
2023/01/03 13:15:30;;;;;;;7.60;4.70;;;;;;;8.83;100.00;99975.09;5049673;28;20120;-65
2023/01/03 13:18:21;;;;;;;11.27;6.32;;;;;;;8.84;100.00;99982.03;5042085;28;20094;-68
2023/01/03 13:21:55;;;;;;;7.72;4.70;;;;;;;8.84;100.00;99983.78;5051795;28;20079;-66
2023/01/03 13:24:51;;;;;;;11.68;5.97;;;;;;;8.66;100.00;99981.03;4989800;28;20054;-67
2023/01/03 13:27:37;;;;;;;7.63;4.78;;;;;;;8.69;100.00;99980.91;4964142;28;20038;-67
2023/01/03 13:30:25;;;;;;;10.98;6.97;;;;;;;8.68;100.00;99981.78;4962834;28;20049;-66
2023/01/03 13:33:10;;;;;;;10.88;5.88;;;;;;;8.71;100.00;99986.06;4989332;28;20070;-67
2023/01/03 13:36:00;;;;;;;12.50;7.30;;;;;;;8.72;100.00;99978.16;4990383;28;20088;-67
2023/01/03 13:38:45;;;;;;;8.35;5.45;;;;;;;8.69;100.00;99978.28;4978347;28;20556;-66
2023/01/03 13:41:37;;;;;;;8.80;4.70;;;;;;;8.79;100.00;99977.91;4990289;28;20212;-65
2023/01/03 13:44:23;;;;;;;9.77;5.00;;;;;;;8.83;100.00;99979.47;4989663;28;20042;-66
2023/01/03 13:47:36;;;;;;;11.48;7.18;;;;;;;8.77;100.00;99980.56;4989481;28;20142;-66
2023/01/03 13:50:31;;;;;;;11.02;7.32;;;;;;;8.68;100.00;99987.03;4989655;28;20441;-67
2023/01/03 13:53:20;;;;;;;12.10;6.10;;;;;;;8.64;100.00;99982.84;4965912;28;20053;-68
2023/01/03 13:56:13;;;;;;;11.50;7.18;;;;;;;8.63;100.00;99987.22;4989135;28;20073;-67
2023/01/03 13:59:13;;;;;;;9.10;5.40;;;;;;;8.47;100.00;99984.34;4962695;28;20137;-68
2023/01/03 14:02:21;;;;;;;9.23;5.20;;;;;;;8.45;100.00;99982.72;5040003;28;20076;-67
2023/01/03 14:05:14;;;;;;;12.50;7.07;;;;;;;8.43;100.00;99987.16;5036027;28;20045;-67
2023/01/03 14:08:17;;;;;;;13.00;7.28;;;;;;;8.38;100.00;99995.16;5050502;28;20076;-67
2023/01/03 14:11:08;;;;;;;14.90;9.20;;;;;;;8.25;100.00;99998.28;5050880;28;20064;-67
2023/01/03 14:14:03;;;;;;;10.70;6.20;;;;;;;8.28;100.00;99999.91;5051536;28;20049;-68
2023/01/03 14:17:05;;;;;;;12.38;7.43;;;;;;;8.29;100.00;99993.75;5041351;28;20071;-65
2023/01/03 14:19:57;;;;;;;14.18;8.90;;;;;;;8.26;100.00;99999.97;4985478;28;20041;-66
2023/01/03 14:22:47;;;;;;;10.35;6.07;;;;;;;8.22;100.00;99998.41;5007714;28;20092;-67